Shoshone, California Weather observations

Data are for observation ending at time listed.
 Day   Time    Ave.   Ave.  Ave.  Vector   Max.   Stn.    Total    Solar   Ave.  
  of    of     Air    Rel.  Wind   Wind    Wind   Baro.  Precip.   Rad.    Soil  
Year   Day     Temp.  Hum.  Speed  Dir.    Gust   Pres.                    Temp. 
2017   (PST)    F      %     mph   deg.    mph     mb.     in.     W/m2     F   
------------------------------------------------------------------------------
  20   11:00   38.1    89    1.2   151      6.1    955     0.08      38    48.1
  20   12:00   35.0    91    0.3    98      3.7    954     0.07      86    48.3
  20   13:00   30.5    91    2.9   300      7.7    952     0.07      75    48.8
  20   14:00   23.7    93    1.9   346      5.0    950     0.08      53    49.1
  20   15:00   20.2    93    0.6   236      2.3    950     0.23      17    49.2
  20   16:00   16.3    94    3.1   152     12.5    948     0.11      26    49.1
  20   17:00   25.1    85   10.2   162     21.0    948     0.01      17    49.0
  20   18:00   33.4    82    9.7   159     24.0    948     0.02       3    48.7
  20   19:00   34.6    84    8.1   157     19.7    947     0.00       1    48.4
  20   20:00   35.4    82    6.5   159     15.3    947     0.00       1    48.1
  20   21:00   37.3    81    7.8   167     17.0    948     0.00       1    47.8
  20   22:00   40.1    76    7.0   174     13.4    948     0.00       1    47.4
  20   23:00   42.6    73    4.7   158     13.3    949     0.00       1    47.0
  21    0:00   44.9    65    7.7   176     13.7    949     0.00       1    46.6
  21    1:00   44.8    65    4.6   186     11.5    950     0.00       1    46.1
  21    2:00   44.4    64    3.9   171      8.8    951     0.00       1    45.6
  21    3:00   40.1    75    0.5   168      4.2    951     0.00       1    45.2
  21    4:00   37.5    80    0.3   108      3.2    952     0.00       1    44.7
  21    5:00   33.1    85    1.0   324      4.7    953     0.00       0    44.2
  21    6:00   29.4    90    0.4    63      4.4    954     0.00       0    43.6
  21    7:00   25.7    92    0.8   345      6.6    956     0.00       2    43.0
  21    8:00   24.6    90    0.9   303      4.2    958     0.00      91    42.5
  21    9:00   28.8    84    1.4   304      5.1    960     0.00     273    43.1
  21   10:00   39.7    71    0.9   266      6.6    961     0.00     435    44.0

Return to Shoshone, California graphs page.


Western Regional Climate Center,wrcc@dri.edu